Time;durP1;ratioP1;P1;durP2;ratioP2;P2;SDS_P1;SDS_P2;PMS_P1;PMS_P2;Temp;Humidity;BMP_temperature;BMP_pressure;BME280_temperature;BME280_humidity;BME280_pressure;Samples;Min_cycle;Max_cycle;Signal;HPM_P1;HPM_P2
2022/09/19 00:02:04;;;;;;;;;;;22.30;46.20;21.10;101021.00;;;;5087949;28;20349;-66
2022/09/19 00:04:50;;;;;;;;;;;22.40;46.30;21.10;101020.00;;;;5097773;27;19943;-66
2022/09/19 00:07:36;;;;;;;;;;;22.30;46.20;21.10;101021.00;;;;5083301;27;19919;-66
2022/09/19 00:10:22;;;;;;;;;;;22.30;46.20;21.10;101020.00;;;;5096408;27;20265;-66
2022/09/19 00:13:08;;;;;;;;;;;22.30;46.20;21.10;101020.00;;;;5095600;27;19966;-66
2022/09/19 00:15:54;;;;;;;;;;;22.30;46.20;21.10;101015.00;;;;5101377;27;19958;-67
2022/09/19 00:18:40;;;;;;;;;;;22.30;46.20;21.10;101015.00;;;;5112485;27;19981;-66
2022/09/19 00:21:28;;;;;;;;;;;22.30;46.20;21.10;101015.00;;;;5105665;27;20266;-66
2022/09/19 00:27:22;;;;;;;;;;;22.30;46.30;21.10;101018.00;;;;5083843;27;19986;-66
2022/09/19 00:30:09;;;;;;;;;;;22.30;46.30;21.10;101019.00;;;;5107767;27;20350;-66
2022/09/19 00:32:55;;;;;;;;;;;22.30;46.20;21.10;101022.00;;;;5084641;27;20003;-66
2022/09/19 00:35:41;;;;;;;;;;;22.30;46.20;21.00;101021.00;;;;5105141;27;19922;-66
2022/09/19 00:38:27;;;;;;;;;;;22.30;46.30;21.10;101026.00;;;;5102007;27;19912;-66
2022/09/19 00:41:15;;;;;;;;;;;22.20;46.20;21.10;101028.00;;;;5097815;27;19938;-66
2022/09/19 00:44:22;;;;;;;;;;;22.30;46.30;21.00;101034.00;;;;5088748;27;20393;-66
2022/09/19 00:47:12;;;;;;;;;;;22.20;46.30;21.00;101036.00;;;;5103293;27;19919;-66
2022/09/19 00:49:58;;;;;;;;;;;22.20;46.30;21.10;101031.00;;;;5088542;27;19912;-66
2022/09/19 00:53:09;;;;;;;;;;;22.30;46.30;21.00;101041.00;;;;5093511;27;19989;-66
2022/09/19 00:55:55;;;;;;;;;;;22.30;46.30;21.10;101043.00;;;;5102061;27;19911;-66
2022/09/19 00:58:44;;;;;;;;;;;22.20;46.30;21.10;101043.00;;;;5088163;28;19921;-66
2022/09/19 01:01:30;;;;;;;;;;;22.30;46.30;21.10;101048.00;;;;5108368;27;19919;-66
2022/09/19 01:04:18;;;;;;;;;;;22.30;46.30;21.00;101050.00;;;;5098566;27;19923;-66
2022/09/19 01:07:28;;;;;;;;;;;22.20;46.30;21.10;101054.00;;;;5090492;27;19915;-66
2022/09/19 01:10:37;;;;;;;;;;;22.20;46.30;21.00;101047.00;;;;5092840;27;20363;-66
2022/09/19 01:13:38;;;;;;;;;;;22.20;46.30;21.00;101053.00;;;;5097050;27;19916;-66
2022/09/19 01:16:50;;;;;;;;;;;22.30;46.40;21.00;101036.00;;;;5096171;27;19912;-66
2022/09/19 01:19:54;;;;;;;;;;;22.20;46.30;21.00;101059.00;;;;5082092;28;20352;-66
2022/09/19 01:23:05;;;;;;;;;;;22.20;46.30;21.00;101065.00;;;;5087870;28;20467;-66
2022/09/19 01:25:54;;;;;;;;;;;22.30;46.30;21.00;101065.00;;;;5100932;27;19915;-66
2022/09/19 01:28:46;;;;;;;;;;;22.30;46.30;21.00;101065.00;;;;5096900;28;19966;-66
2022/09/19 01:31:33;;;;;;;;;;;22.20;46.30;21.00;101065.00;;;;5086158;27;19919;-66
2022/09/19 01:34:26;;;;;;;;;;;22.20;46.30;21.00;101062.00;;;;5112431;27;20273;-66
2022/09/19 01:37:27;;;;;;;;;;;22.20;46.30;21.00;101071.00;;;;5104430;27;19915;-66
2022/09/19 01:40:13;;;;;;;;;;;22.20;46.30;21.00;101068.00;;;;5085658;28;20353;-66
2022/09/19 01:42:59;;;;;;;;;;;22.20;46.30;21.00;101073.00;;;;5088778;28;20365;-66
2022/09/19 01:45:45;;;;;;;;;;;22.20;46.30;21.00;101082.00;;;;5094041;27;19920;-66
2022/09/19 01:48:43;;;;;;;;;;;22.20;46.30;21.00;101081.00;;;;5083989;28;19911;-66
2022/09/19 01:51:31;;;;;;;;;;;22.20;46.30;21.00;101081.00;;;;5097499;27;19985;-66
2022/09/19 01:54:32;;;;;;;;;;;22.20;46.30;21.00;101084.00;;;;5083512;27;20006;-66
2022/09/19 01:57:51;;;;;;;;;;;22.20;46.40;21.00;101082.00;;;;5083583;28;19912;-66
2022/09/19 02:00:41;;;;;;;;;;;22.20;46.40;21.00;101083.00;;;;5082765;27;19911;-66
2022/09/19 02:03:36;;;;;;;;;;;22.20;46.40;21.00;101087.00;;;;5069059;28;19973;-66
2022/09/19 02:06:42;;;;;;;;;;;22.20;46.40;21.00;101090.00;;;;5092560;28;20337;-66
2022/09/19 02:09:39;;;;;;;;;;;22.20;46.40;21.00;101083.00;;;;5083385;28;19919;-66
2022/09/19 02:12:25;;;;;;;;;;;22.20;46.40;21.00;101081.00;;;;5080387;28;19916;-66
2022/09/19 02:15:11;;;;;;;;;;;22.20;46.40;21.00;101091.00;;;;5096581;28;20002;-66
2022/09/19 02:18:01;;;;;;;;;;;22.20;46.40;21.00;101090.00;;;;5084155;28;19912;-66
2022/09/19 02:20:47;;;;;;;;;;;22.20;46.40;21.00;101101.00;;;;5093123;28;19938;-66
2022/09/19 02:23:36;;;;;;;;;;;22.20;46.40;21.00;101102.00;;;;5102761;28;19911;-66
2022/09/19 02:26:22;;;;;;;;;;;22.20;46.40;21.00;101104.00;;;;5091382;28;19916;-66
2022/09/19 02:29:13;;;;;;;;;;;22.20;46.40;21.00;101093.00;;;;5094701;28;19994;-66
2022/09/19 02:32:00;;;;;;;;;;;22.20;46.40;21.00;101100.00;;;;5085677;28;20376;-66
2022/09/19 02:34:48;;;;;;;;;;;22.20;46.40;21.00;101109.00;;;;5101694;27;19924;-66
2022/09/19 02:37:37;;;;;;;;;;;22.20;46.40;21.00;101101.00;;;;5097938;27;20057;-66
2022/09/19 02:40:36;;;;;;;;;;;22.20;46.40;21.00;101103.00;;;;5094663;27;20026;-66
2022/09/19 02:43:46;;;;;;;;;;;22.20;46.40;21.00;101109.00;;;;5087711;27;19923;-66
2022/09/19 02:46:35;;;;;;;;;;;22.20;46.40;21.00;101105.00;;;;5108934;27;19937;-66
2022/09/19 02:49:59;;;;;;;;;;;22.20;46.40;21.00;101112.00;;;;5116607;27;19998;-66
2022/09/19 02:52:45;;;;;;;;;;;22.20;46.40;21.00;101110.00;;;;5091203;28;19955;-66
2022/09/19 02:55:35;;;;;;;;;;;22.20;46.40;21.00;101118.00;;;;5083102;27;19922;-66
2022/09/19 02:58:21;;;;;;;;;;;22.20;46.40;21.00;101113.00;;;;5075229;27;20014;-66
2022/09/19 03:01:14;;;;;;;;;;;22.20;46.40;21.00;101128.00;;;;5095311;27;19965;-66
2022/09/19 03:04:18;;;;;;;;;;;22.10;46.40;21.00;101118.00;;;;5093361;27;20603;-66
2022/09/19 03:07:13;;;;;;;;;;;22.20;46.40;21.00;101125.00;;;;5096979;27;19915;-66
2022/09/19 03:10:07;;;;;;;;;;;22.20;47.10;20.90;101114.00;;;;5094771;27;19922;-66
2022/09/19 03:12:55;;;;;;;;;;;22.20;46.40;20.90;101121.00;;;;5114525;27;19912;-66
2022/09/19 03:15:47;;;;;;;;;;;22.10;46.40;20.90;101126.00;;;;5100085;27;19923;-66
2022/09/19 03:18:33;;;;;;;;;;;22.20;46.50;20.90;101126.00;;;;5092277;27;20341;-66
2022/09/19 03:21:20;;;;;;;;;;;22.20;46.40;20.90;101116.00;;;;5100810;27;20268;-66
2022/09/19 03:24:06;;;;;;;;;;;22.10;46.40;20.90;101126.00;;;;5065584;28;19932;-66
2022/09/19 03:26:52;;;;;;;;;;;22.10;46.40;20.90;101117.00;;;;5082604;27;19966;-66
2022/09/19 03:29:38;;;;;;;;;;;22.10;46.40;20.90;101122.00;;;;5098931;27;19920;-66
2022/09/19 03:32:26;;;;;;;;;;;22.10;46.40;20.90;101120.00;;;;5106814;27;19997;-66
2022/09/19 03:35:14;;;;;;;;;;;22.10;46.40;20.90;101130.00;;;;5105925;27;19958;-66
2022/09/19 03:38:01;;;;;;;;;;;22.10;46.40;20.90;101131.00;;;;5092783;27;20206;-67
2022/09/19 03:40:47;;;;;;;;;;;22.10;46.40;20.90;101141.00;;;;5092081;28;19911;-66
2022/09/19 03:43:33;;;;;;;;;;;22.10;46.40;20.90;101141.00;;;;5097738;27;19920;-66
2022/09/19 03:46:22;;;;;;;;;;;22.00;46.40;20.90;101139.00;;;;5098879;27;19922;-66
2022/09/19 03:49:10;;;;;;;;;;;22.20;46.50;20.90;101143.00;;;;5099135;27;20369;-66
2022/09/19 03:51:59;;;;;;;;;;;22.10;46.40;20.90;101139.00;;;;5097558;27;19951;-66
2022/09/19 03:54:45;;;;;;;;;;;22.10;46.40;20.90;101138.00;;;;5094461;27;19912;-66
2022/09/19 03:57:31;;;;;;;;;;;22.10;46.40;20.90;101138.00;;;;5102593;27;19912;-66
2022/09/19 04:00:17;;;;;;;;;;;22.10;46.40;20.90;101145.00;;;;5097123;28;19918;-66
2022/09/19 04:03:03;;;;;;;;;;;22.10;46.40;20.90;101146.00;;;;5086102;28;19999;-66
2022/09/19 04:05:51;;;;;;;;;;;22.10;46.50;20.90;101147.00;;;;5090735;27;20178;-66
2022/09/19 04:08:38;;;;;;;;;;;22.10;46.50;20.90;101154.00;;;;5098008;27;19923;-66
2022/09/19 04:11:24;;;;;;;;;;;22.10;46.40;20.90;101146.00;;;;5079826;27;19916;-66
2022/09/19 04:14:10;;;;;;;;;;;22.10;46.40;20.90;101151.00;;;;5099366;27;19912;-66
2022/09/19 04:16:56;;;;;;;;;;;22.10;46.50;20.90;101158.00;;;;5099906;27;19954;-66
2022/09/19 04:19:42;;;;;;;;;;;22.10;46.50;20.90;101162.00;;;;5098961;27;19911;-66
2022/09/19 04:22:28;;;;;;;;;;;22.10;46.50;20.90;101167.00;;;;5094972;27;19911;-66
2022/09/19 04:25:15;;;;;;;;;;;22.10;46.50;21.00;101177.00;;;;5095607;28;20216;-66
2022/09/19 04:28:02;;;;;;;;;;;22.10;46.50;20.90;101176.00;;;;5099627;27;20364;-67
2022/09/19 04:30:48;;;;;;;;;;;22.10;46.50;21.00;101177.00;;;;5096416;27;20356;-66
2022/09/19 04:33:36;;;;;;;;;;;22.10;46.50;21.00;101177.00;;;;5084344;27;19915;-66
2022/09/19 04:36:23;;;;;;;;;;;22.20;46.60;21.00;101176.00;;;;5101534;27;19959;-66
2022/09/19 04:39:10;;;;;;;;;;;22.10;46.50;21.00;101174.00;;;;5099372;27;20254;-66
2022/09/19 04:41:56;;;;;;;;;;;22.10;46.50;21.00;101178.00;;;;5097962;27;19919;-66
2022/09/19 04:44:42;;;;;;;;;;;22.20;46.60;21.00;101186.00;;;;5095674;27;19923;-66
2022/09/19 04:47:32;;;;;;;;;;;22.10;46.50;21.00;101182.00;;;;5098040;27;19912;-66
2022/09/19 04:50:18;;;;;;;;;;;22.20;46.60;21.00;101196.00;;;;5098553;27;19920;-66
2022/09/19 04:53:03;;;;;;;;;;;22.20;46.60;21.00;101190.00;;;;5080923;28;19912;-66
2022/09/19 04:55:51;;;;;;;;;;;22.20;46.60;21.00;101189.00;;;;5094326;27;19912;-66
2022/09/19 04:58:40;;;;;;;;;;;22.10;46.50;21.00;101196.00;;;;5086873;28;20089;-66
2022/09/19 05:01:26;;;;;;;;;;;22.20;46.60;21.00;101197.00;;;;5104122;27;20353;-66
2022/09/19 05:04:15;;;;;;;;;;;22.10;46.50;21.00;101196.00;;;;5101334;27;19912;-66
2022/09/19 05:07:02;;;;;;;;;;;22.20;46.60;21.00;101206.00;;;;5072454;27;19923;-66
2022/09/19 05:09:47;;;;;;;;;;;22.10;46.60;21.00;101209.00;;;;5097581;27;20445;-66
2022/09/19 05:12:34;;;;;;;;;;;22.20;46.60;21.00;101209.00;;;;5101710;27;20655;-66
2022/09/19 05:15:20;;;;;;;;;;;22.10;46.50;20.90;101202.00;;;;5096940;27;19943;-66
2022/09/19 05:18:06;;;;;;;;;;;22.10;46.50;21.00;101207.00;;;;5101171;27;19923;-66
2022/09/19 05:20:54;;;;;;;;;;;22.20;46.60;20.90;101213.00;;;;5098373;27;19912;-66
2022/09/19 05:23:40;;;;;;;;;;;22.20;46.60;20.90;101211.00;;;;5094292;28;19938;-66
2022/09/19 05:26:26;;;;;;;;;;;22.10;47.30;21.00;101215.00;;;;5082411;28;20156;-66
2022/09/19 05:29:13;;;;;;;;;;;22.10;46.60;20.90;101223.00;;;;5088981;28;20295;-66
2022/09/19 05:32:04;;;;;;;;;;;22.20;46.60;21.00;101221.00;;;;5083024;28;20014;-67
2022/09/19 05:34:51;;;;;;;;;;;22.20;46.60;21.00;101226.00;;;;5098400;28;19989;-66
2022/09/19 05:37:41;;;;;;;;;;;22.20;46.70;21.00;101226.00;;;;5104077;28;19922;-66
2022/09/19 05:40:27;;;;;;;;;;;22.10;46.60;20.90;101232.00;;;;5078888;28;19916;-66
2022/09/19 05:43:13;;;;;;;;;;;22.20;46.60;20.90;101232.00;;;;5096496;28;19964;-66
2022/09/19 05:45:59;;;;;;;;;;;22.20;46.60;20.90;101233.00;;;;5093261;28;19969;-66
2022/09/19 05:49:06;;;;;;;;;;;22.20;46.60;20.90;101241.00;;;;5088950;28;20006;-66
2022/09/19 05:51:55;;;;;;;;;;;22.20;46.70;21.00;101237.00;;;;5096900;28;19911;-66
2022/09/19 05:54:41;;;;;;;;;;;22.10;46.60;21.00;101244.00;;;;5065417;28;19981;-66
2022/09/19 05:57:27;;;;;;;;;;;22.10;46.60;20.90;101241.00;;;;5101341;28;20277;-66
2022/09/19 06:00:13;;;;;;;;;;;22.10;46.60;20.90;101243.00;;;;5095529;28;19912;-66
2022/09/19 06:03:02;;;;;;;;;;;22.20;46.70;21.00;101241.00;;;;5096577;28;20114;-66
2022/09/19 06:05:51;;;;;;;;;;;22.20;46.70;21.00;101240.00;;;;5086069;28;19962;-66
2022/09/19 06:08:38;;;;;;;;;;;22.20;46.70;21.00;101251.00;;;;5096461;27;19922;-66
2022/09/19 06:11:24;;;;;;;;;;;22.20;46.70;21.00;101243.00;;;;5096067;28;20361;-66
2022/09/19 06:14:15;;;;;;;;;;;22.20;46.70;21.00;101251.00;;;;5091936;28;19919;-66
2022/09/19 06:17:01;;;;;;;;;;;22.20;46.70;21.00;101250.00;;;;5094462;28;20399;-66
2022/09/19 06:19:47;;;;;;;;;;;22.20;46.70;20.90;101248.00;;;;5058178;28;1049717;-66
2022/09/19 06:22:34;;;;;;;;;;;22.20;46.70;21.00;101260.00;;;;5096958;28;19915;-66
2022/09/19 06:25:20;;;;;;;;;;;22.20;46.70;21.00;101259.00;;;;5102399;28;19930;-66
2022/09/19 06:28:12;;;;;;;;;;;22.20;46.70;21.00;101257.00;;;;5091708;28;20263;-66
2022/09/19 06:31:03;;;;;;;;;;;22.20;46.70;21.00;101262.00;;;;5085774;28;19911;-66
2022/09/19 06:33:49;;;;;;;;;;;22.20;46.70;21.00;101266.00;;;;5098814;28;19986;-66
2022/09/19 06:36:35;;;;;;;;;;;22.20;46.70;21.00;101276.00;;;;5099942;28;20128;-66
2022/09/19 06:39:21;;;;;;;;;;;22.10;46.60;21.00;101272.00;;;;5094258;28;19920;-66
2022/09/19 06:42:07;;;;;;;;;;;22.20;46.70;21.00;101280.00;;;;5090663;28;19934;-66
2022/09/19 06:44:53;;;;;;;;;;;22.20;46.70;21.00;101287.00;;;;5094273;28;19919;-66
2022/09/19 06:47:39;;;;;;;;;;;22.20;46.70;21.00;101289.00;;;;5087721;28;19942;-66
2022/09/19 06:50:25;;;;;;;;;;;22.20;46.70;21.00;101290.00;;;;5100596;28;19922;-66
2022/09/19 06:53:11;;;;;;;;;;;22.20;46.70;21.00;101297.00;;;;5095104;28;20364;-66
2022/09/19 06:55:57;;;;;;;;;;;22.20;46.70;21.00;101296.00;;;;5095956;28;19969;-66
2022/09/19 06:58:43;;;;;;;;;;;22.20;46.70;21.00;101300.00;;;;5102211;28;19911;-66
2022/09/19 07:01:30;;;;;;;;;;;22.20;46.70;21.00;101293.00;;;;5093006;28;20043;-66
2022/09/19 07:04:18;;;;;;;;;;;22.10;46.70;21.00;101303.00;;;;5094828;28;19912;-66
2022/09/19 07:07:05;;;;;;;;;;;22.20;46.70;21.00;101297.00;;;;5096091;28;20250;-66
2022/09/19 07:09:51;;;;;;;;;;;22.20;46.70;21.00;101299.00;;;;5097024;28;19915;-66
2022/09/19 07:12:37;;;;;;;;;;;22.20;46.70;21.00;101301.00;;;;5108371;28;19915;-66
2022/09/19 07:15:23;;;;;;;;;;;22.20;46.70;21.00;101302.00;;;;5096138;28;19961;-66
2022/09/19 07:18:11;;;;;;;;;;;22.20;46.70;21.00;101306.00;;;;5094606;28;20346;-67
2022/09/19 07:21:00;;;;;;;;;;;22.20;46.70;21.00;101309.00;;;;5098738;28;19912;-66
2022/09/19 07:23:47;;;;;;;;;;;22.20;46.70;21.00;101318.00;;;;5099558;28;20403;-66
2022/09/19 07:26:33;;;;;;;;;;;22.30;46.70;21.00;101307.00;;;;5108746;27;19960;-66
2022/09/19 07:29:19;;;;;;;;;;;22.30;46.70;21.00;101316.00;;;;5087857;28;19911;-66
2022/09/19 07:32:05;;;;;;;;;;;22.30;46.70;21.00;101313.00;;;;5092553;28;19912;-66
2022/09/19 07:34:51;;;;;;;;;;;22.20;46.70;21.00;101324.00;;;;5100091;28;19964;-66
2022/09/19 07:37:37;;;;;;;;;;;22.20;46.70;21.00;101326.00;;;;5110253;27;19961;-66
2022/09/19 07:40:23;;;;;;;;;;;22.30;46.70;21.00;101326.00;;;;5099902;28;19912;-66
2022/09/19 07:43:13;;;;;;;;;;;22.30;46.80;21.00;101333.00;;;;5100171;28;19918;-66
2022/09/19 07:45:59;;;;;;;;;;;22.20;46.70;21.00;101328.00;;;;5098458;28;20372;-66
2022/09/19 07:48:48;;;;;;;;;;;22.20;46.70;21.00;101347.00;;;;5096228;27;19976;-66
2022/09/19 07:51:34;;;;;;;;;;;22.30;46.70;21.00;101339.00;;;;5099994;28;19916;-66
2022/09/19 07:54:20;;;;;;;;;;;22.20;46.70;21.10;101342.00;;;;5099804;28;19916;-66
2022/09/19 07:57:06;;;;;;;;;;;22.30;46.70;21.10;101340.00;;;;5099768;27;19912;-66
2022/09/19 07:59:52;;;;;;;;;;;22.30;46.80;21.10;101351.00;;;;5095225;28;20299;-66
2022/09/19 08:02:38;;;;;;;;;;;22.30;46.70;21.10;101342.00;;;;5097122;28;20424;-66
2022/09/19 08:05:25;;;;;;;;;;;22.20;46.70;21.10;101340.00;;;;5096407;28;19923;-66
2022/09/19 08:08:12;;;;;;;;;;;22.30;46.70;21.10;101342.00;;;;5084999;28;20377;-66
2022/09/19 08:11:00;;;;;;;;;;;22.30;46.70;21.10;101342.00;;;;5092023;28;19912;-66
2022/09/19 08:13:46;;;;;;;;;;;22.30;46.80;21.10;101358.00;;;;5099466;28;19951;-66
2022/09/19 08:16:32;;;;;;;;;;;22.30;46.70;21.10;101357.00;;;;5100062;28;19919;-66
2022/09/19 08:19:18;;;;;;;;;;;22.30;46.80;21.10;101361.00;;;;5097687;28;19912;-66
2022/09/19 08:22:04;;;;;;;;;;;22.40;46.80;21.10;101360.00;;;;5095194;28;19912;-66
2022/09/19 08:24:50;;;;;;;;;;;22.30;46.80;21.10;101366.00;;;;5098474;28;19946;-66
2022/09/19 08:27:37;;;;;;;;;;;22.40;46.80;21.10;101367.00;;;;5100387;28;20353;-66
2022/09/19 08:30:24;;;;;;;;;;;22.30;46.80;21.10;101368.00;;;;5101294;28;19912;-66
2022/09/19 08:33:10;;;;;;;;;;;22.30;46.70;21.10;101369.00;;;;5094628;28;20036;-66
2022/09/19 08:35:59;;;;;;;;;;;22.30;46.70;21.10;101380.00;;;;5098863;28;19915;-66
2022/09/19 08:38:45;;;;;;;;;;;22.30;46.70;21.10;101373.00;;;;5085393;28;19993;-66
2022/09/19 08:41:35;;;;;;;;;;;22.40;46.80;21.10;101380.00;;;;5096900;28;19938;-66
2022/09/19 08:44:43;;;;;;;;;;;22.30;46.80;21.10;101380.00;;;;5081768;28;20014;-66
2022/09/19 08:47:31;;;;;;;;;;;22.30;46.70;21.10;101377.00;;;;5093738;28;20010;-66
2022/09/19 08:50:25;;;;;;;;;;;22.30;46.80;21.10;101385.00;;;;5086741;28;19912;-66
2022/09/19 08:53:13;;;;;;;;;;;22.30;46.80;21.10;101388.00;;;;5086736;28;19923;-66
2022/09/19 08:56:00;;;;;;;;;;;22.30;46.80;21.10;101381.00;;;;5083136;28;19912;-66
2022/09/19 08:58:59;;;;;;;;;;;22.30;46.80;21.10;101392.00;;;;5075697;28;19911;-66
2022/09/19 09:01:45;;;;;;;;;;;22.40;46.80;21.10;101383.00;;;;5098992;27;19912;-66
2022/09/19 09:04:31;;;;;;;;;;;22.40;46.90;21.10;101376.00;;;;5100777;27;20355;-66
2022/09/19 09:07:23;;;;;;;;;;;22.40;46.80;21.20;101385.00;;;;5102326;27;19912;-66
2022/09/19 09:10:31;;;;;;;;;;;22.40;46.80;21.10;101383.00;;;;5091930;27;19915;-66
2022/09/19 09:13:26;;;;;;;;;;;22.40;46.90;21.20;101376.00;;;;5098131;27;20509;-66
2022/09/19 09:16:21;;;;;;;;;;;22.40;46.80;21.20;101381.00;;;;5091330;28;19938;-66
2022/09/19 09:19:35;;;;;;;;;;;22.40;46.90;21.20;101389.00;;;;5091344;28;19915;-66
2022/09/19 09:22:25;;;;;;;;;;;22.40;46.80;21.20;101381.00;;;;5084088;28;19916;-66
2022/09/19 09:25:16;;;;;;;;;;;22.40;46.90;21.20;101393.00;;;;5091940;28;19976;-66
2022/09/19 09:28:10;;;;;;;;;;;22.40;46.80;21.20;101391.00;;;;5105277;27;19912;-66
2022/09/19 09:31:24;;;;;;;;;;;22.40;46.90;21.20;101385.00;;;;5076701;28;20326;-66
2022/09/19 09:34:33;;;;;;;;;;;22.40;46.90;21.20;101395.00;;;;5106425;27;19920;-66
2022/09/19 09:37:23;;;;;;;;;;;22.40;46.80;21.20;101393.00;;;;5085830;28;20030;-66
2022/09/19 09:40:13;;;;;;;;;;;22.40;46.90;21.20;101393.00;;;;5070385;28;19935;-66
2022/09/19 09:43:02;;;;;;;;;;;22.50;46.90;21.20;101389.00;;;;5085279;28;20002;-66
2022/09/19 09:45:49;;;;;;;;;;;22.40;46.90;21.20;101404.00;;;;5080861;28;20460;-66
2022/09/19 09:48:37;;;;;;;;;;;22.40;46.80;21.20;101401.00;;;;5084023;28;19928;-66
2022/09/19 09:51:39;;;;;;;;;;;22.50;46.90;21.20;101408.00;;;;5097491;28;19916;-66
2022/09/19 09:57:51;;;;;;;;;;;22.50;46.90;21.20;101396.00;;;;5095540;28;19911;-66
2022/09/19 10:03:49;;;;;;;;;;;22.40;46.80;21.20;101398.00;;;;5081100;28;19927;-66
2022/09/19 10:06:43;;;;;;;;;;;22.40;46.90;21.20;101403.00;;;;5092223;28;20365;-66
2022/09/19 10:09:33;;;;;;;;;;;22.50;46.90;21.20;101387.00;;;;5084550;28;19915;-66
2022/09/19 10:12:27;;;;;;;;;;;22.40;46.90;21.20;101383.00;;;;5089444;28;20022;-66
2022/09/19 10:15:16;;;;;;;;;;;22.50;46.90;21.20;101379.00;;;;5092163;28;19912;-66
2022/09/19 10:18:09;;;;;;;;;;;22.50;46.90;21.20;101380.00;;;;5098275;28;19922;-66
2022/09/19 10:20:55;;;;;;;;;;;22.50;46.90;21.20;101379.00;;;;5082988;28;19911;-66
2022/09/19 10:23:45;;;;;;;;;;;22.50;46.90;21.30;101372.00;;;;5091706;28;19992;-66
2022/09/19 10:26:31;;;;;;;;;;;22.50;46.90;21.20;101368.00;;;;5092738;28;19923;-66
2022/09/19 10:29:20;;;;;;;;;;;22.60;47.60;21.20;101367.00;;;;5102642;28;20228;-66
2022/09/19 10:32:07;;;;;;;;;;;22.50;46.90;21.30;101370.00;;;;5082935;28;19919;-66
2022/09/19 10:34:53;;;;;;;;;;;22.50;46.90;21.30;101371.00;;;;5087470;28;19911;-66
2022/09/19 10:37:40;;;;;;;;;;;22.50;46.90;21.30;101374.00;;;;5089984;28;19923;-66
2022/09/19 10:40:30;;;;;;;;;;;22.50;46.90;21.30;101374.00;;;;5097551;28;20381;-66
2022/09/19 10:43:22;;;;;;;;;;;22.50;46.90;21.30;101375.00;;;;5084672;28;19912;-66
2022/09/19 10:46:08;;;;;;;;;;;22.50;46.90;21.30;101371.00;;;;5075003;28;19925;-66
2022/09/19 10:48:56;;;;;;;;;;;22.60;46.90;21.30;101368.00;;;;5093226;28;19977;-66
2022/09/19 10:51:43;;;;;;;;;;;22.60;46.90;21.30;101373.00;;;;5079249;28;20361;-66
2022/09/19 10:54:37;;;;;;;;;;;22.60;46.90;21.30;101379.00;;;;5082238;28;19912;-66
2022/09/19 10:57:45;;;;;;;;;;;22.60;46.80;21.30;101370.00;;;;5107849;27;19976;-66
2022/09/19 11:00:44;;;;;;;;;;;22.60;46.80;21.30;101370.00;;;;5089608;28;19912;-66
2022/09/19 11:03:30;;;;;;;;;;;22.60;46.80;21.30;101371.00;;;;5090631;28;19916;-66
2022/09/19 11:06:18;;;;;;;;;;;22.60;46.80;21.30;101367.00;;;;5097628;27;20308;-66
2022/09/19 11:09:06;;;;;;;;;;;22.70;46.90;21.30;101365.00;;;;5078409;28;19998;-66
2022/09/19 11:11:54;;;;;;;;;;;22.60;46.80;21.30;101361.00;;;;5103602;27;19918;-66
2022/09/19 11:14:41;;;;;;;;;;;22.60;46.80;21.40;101367.00;;;;5085972;27;20177;-66
2022/09/19 11:17:55;;;;;;;;;;;22.60;46.80;21.40;101373.00;;;;5089704;28;19923;-66
2022/09/19 11:20:52;;;;;;;;;;;22.60;46.70;21.40;101366.00;;;;5097502;27;20314;-66
2022/09/19 11:23:56;;;;;;;;;;;22.70;46.80;21.40;101362.00;;;;5087120;28;19987;-66
2022/09/19 11:26:58;;;;;;;;;;;22.60;46.70;21.40;101361.00;;;;5101772;28;19920;-66
2022/09/19 11:30:18;;;;;;;;;;;22.70;46.80;21.40;101369.00;;;;5091544;27;20009;-66
2022/09/19 11:33:10;;;;;;;;;;;22.60;46.70;21.40;101373.00;;;;5097278;27;19998;-66
2022/09/19 11:36:48;;;;;;;;;;;22.70;46.80;21.40;101375.00;;;;5090682;27;19916;-66
2022/09/19 11:40:19;;;;;;;;;;;22.70;46.80;21.40;101383.00;;;;5057267;28;19956;-66
2022/09/19 11:43:38;;;;;;;;;;;22.70;46.70;21.40;101387.00;;;;5084392;28;19962;-66
2022/09/19 11:46:49;;;;;;;;;;;22.70;46.80;21.40;101389.00;;;;5109139;27;19915;-66
2022/09/19 11:50:02;;;;;;;;;;;22.70;46.70;21.30;101385.00;;;;5091276;27;19923;-66
2022/09/19 11:53:01;;;;;;;;;;;22.70;46.70;21.30;101396.00;;;;5097023;28;19923;-66
2022/09/19 11:55:56;;;;;;;;;;;22.70;46.70;21.30;101383.00;;;;5100146;27;20345;-66
2022/09/19 11:58:54;;;;;;;;;;;22.60;46.60;21.30;101382.00;;;;5090623;27;19915;-66
2022/09/19 12:01:49;;;;;;;;;;;22.70;46.70;21.30;101378.00;;;;5095351;27;19926;-66
2022/09/19 12:04:42;;;;;;;;;;;22.60;46.70;21.30;101385.00;;;;5100706;27;19989;-66
2022/09/19 12:07:44;;;;;;;;;;;22.70;46.70;21.40;101380.00;;;;5095401;27;20319;-66
2022/09/19 12:10:35;;;;;;;;;;;22.70;47.00;21.40;101377.00;;;;5100308;27;19912;-66
2022/09/19 12:13:44;;;;;;;;;;;22.70;46.70;21.40;101378.00;;;;5083950;27;20292;-66
2022/09/19 12:16:33;;;;;;;;;;;22.70;46.70;21.40;101386.00;;;;5078534;28;19920;-66
2022/09/19 12:19:24;;;;;;;;;;;22.70;46.70;21.40;101388.00;;;;5095005;28;19939;-66
2022/09/19 12:22:18;;;;;;;;;;;22.70;46.70;21.40;101380.00;;;;5075742;28;20382;-66
2022/09/19 12:25:22;;;;;;;;;;;22.70;46.60;21.40;101378.00;;;;5089003;28;19926;-66
2022/09/19 12:28:10;;;;;;;;;;;22.70;46.60;21.40;101374.00;;;;5100682;28;19918;-66
2022/09/19 12:30:58;;;;;;;;;;;22.70;46.60;21.40;101381.00;;;;5105113;27;20476;-66
2022/09/19 12:34:14;;;;;;;;;;;22.70;46.60;21.40;101408.00;;;;5082799;28;20362;-66
2022/09/19 12:37:05;;;;;;;;;;;22.80;46.60;21.40;101424.00;;;;5089217;27;19926;-66
2022/09/19 12:39:55;;;;;;;;;;;22.70;46.50;21.50;101445.00;;;;5106896;27;19990;-66
2022/09/19 12:42:47;;;;;;;;;;;22.80;46.60;21.50;101421.00;;;;5084283;28;19911;-66
2022/09/19 12:45:39;;;;;;;;;;;22.80;46.50;21.50;101433.00;;;;5099015;28;19924;-66
2022/09/19 12:48:36;;;;;;;;;;;22.80;46.50;21.50;101431.00;;;;5088244;28;19981;-66
2022/09/19 12:51:39;;;;;;;;;;;22.80;46.50;21.50;101427.00;;;;5083586;27;20006;-66
2022/09/19 12:54:37;;;;;;;;;;;22.80;46.50;21.50;101418.00;;;;5087341;27;19918;-66
2022/09/19 12:57:35;;;;;;;;;;;22.80;46.50;21.50;101422.00;;;;5098088;28;19919;-66
2022/09/19 13:00:22;;;;;;;;;;;22.80;46.50;21.50;101431.00;;;;5080306;27;19923;-65
2022/09/19 13:03:42;;;;;;;;;;;22.70;46.50;21.50;101420.00;;;;5089997;27;20340;-66
2022/09/19 13:06:30;;;;;;;;;;;22.70;46.50;21.50;101419.00;;;;5097528;27;20046;-66
2022/09/19 13:09:22;;;;;;;;;;;22.70;46.50;21.50;101418.00;;;;5097300;27;20270;-66
2022/09/19 13:12:14;;;;;;;;;;;22.80;47.30;21.50;101421.00;;;;5067292;28;19922;-66
2022/09/19 13:15:05;;;;;;;;;;;22.80;46.60;21.50;101419.00;;;;5093179;27;20015;-66
2022/09/19 13:24:00;;;;;;;;;;;22.80;46.50;21.50;101417.00;;;;5080064;28;20039;-66
2022/09/19 13:26:56;;;;;;;;;;;22.80;46.60;21.50;101412.00;;;;5094857;28;20357;-66
2022/09/19 13:29:45;;;;;;;;;;;22.80;46.60;21.50;101411.00;;;;5095945;28;19912;-66
2022/09/19 13:32:52;;;;;;;;;;;22.80;46.60;21.50;101413.00;;;;5097444;27;20349;-66
2022/09/19 13:35:48;;;;;;;;;;;22.70;46.50;21.50;101423.00;;;;5076195;27;19912;-66
2022/09/19 13:38:41;;;;;;;;;;;22.80;46.50;21.50;101446.00;;;;5098488;27;19915;-66
2022/09/19 13:41:39;;;;;;;;;;;22.80;46.50;21.50;101483.00;;;;5088085;28;19912;-65
2022/09/19 13:44:37;;;;;;;;;;;22.80;46.50;21.50;101486.00;;;;5097705;27;19912;-66
2022/09/19 13:47:28;;;;;;;;;;;22.90;46.60;21.50;101486.00;;;;5082515;27;19927;-65
2022/09/19 13:50:22;;;;;;;;;;;22.80;46.50;21.50;101481.00;;;;5085379;27;20372;-66
2022/09/19 13:53:30;;;;;;;;;;;22.80;46.50;21.50;101476.00;;;;5097155;27;19962;-66
2022/09/19 13:56:27;;;;;;;;;;;22.90;46.60;21.50;101468.00;;;;5098730;27;20345;-66
2022/09/19 13:59:24;;;;;;;;;;;22.80;46.50;21.50;101469.00;;;;5088773;28;20362;-66
2022/09/19 14:02:10;;;;;;;;;;;22.80;46.60;21.50;101464.00;;;;5078745;28;19967;-66
2022/09/19 14:04:57;;;;;;;;;;;22.80;46.60;21.50;101465.00;;;;5096801;27;19976;-65